sensor_id;sensor_type;location;lat;lon;timestamp;temperature;humidity
12289;DHT22;6207;49.308;7.336;2022-11-15T00:01:07;12.00;99.90
12289;DHT22;6207;49.308;7.336;2022-11-15T00:03:35;11.40;99.90
12289;DHT22;6207;49.308;7.336;2022-11-15T00:06:03;12.20;99.90
12289;DHT22;6207;49.308;7.336;2022-11-15T00:08:31;11.50;99.90
12289;DHT22;6207;49.308;7.336;2022-11-15T00:11:00;12.00;99.90
12289;DHT22;6207;49.308;7.336;2022-11-15T00:13:27;12.00;99.90
12289;DHT22;6207;49.308;7.336;2022-11-15T00:16:00;11.30;99.90
12289;DHT22;6207;49.308;7.336;2022-11-15T00:18:37;11.60;99.90
12289;DHT22;6207;49.308;7.336;2022-11-15T00:21:12;11.80;99.90
12289;DHT22;6207;49.308;7.336;2022-11-15T00:23:39;11.40;99.90
12289;DHT22;6207;49.308;7.336;2022-11-15T00:26:06;11.40;99.90
12289;DHT22;6207;49.308;7.336;2022-11-15T00:28:33;11.40;99.90
12289;DHT22;6207;49.308;7.336;2022-11-15T00:31:01;12.10;99.90
12289;DHT22;6207;49.308;7.336;2022-11-15T00:33:28;11.50;99.90
12289;DHT22;6207;49.308;7.336;2022-11-15T00:36:07;12.10;99.90
12289;DHT22;6207;49.308;7.336;2022-11-15T00:38:37;11.40;99.90
12289;DHT22;6207;49.308;7.336;2022-11-15T00:41:05;12.00;99.90
12289;DHT22;6207;49.308;7.336;2022-11-15T00:43:35;11.50;99.90
12289;DHT22;6207;49.308;7.336;2022-11-15T00:46:02;11.80;99.90
12289;DHT22;6207;49.308;7.336;2022-11-15T00:48:36;11.50;99.90
12289;DHT22;6207;49.308;7.336;2022-11-15T00:51:03;12.10;99.90
12289;DHT22;6207;49.308;7.336;2022-11-15T00:53:30;11.60;99.90
12289;DHT22;6207;49.308;7.336;2022-11-15T00:55:57;11.60;99.90
12289;DHT22;6207;49.308;7.336;2022-11-15T00:58:24;12.20;99.90
12289;DHT22;6207;49.308;7.336;2022-11-15T01:00:51;11.80;99.90
12289;DHT22;6207;49.308;7.336;2022-11-15T01:03:18;12.10;99.90
12289;DHT22;6207;49.308;7.336;2022-11-15T01:05:45;11.70;99.90
12289;DHT22;6207;49.308;7.336;2022-11-15T01:08:16;11.60;99.90
12289;DHT22;6207;49.308;7.336;2022-11-15T01:10:43;12.40;99.90
12289;DHT22;6207;49.308;7.336;2022-11-15T01:13:10;11.60;99.90
12289;DHT22;6207;49.308;7.336;2022-11-15T01:15:40;12.10;99.90
12289;DHT22;6207;49.308;7.336;2022-11-15T01:18:07;12.20;99.90
12289;DHT22;6207;49.308;7.336;2022-11-15T01:20:38;11.60;99.90
12289;DHT22;6207;49.308;7.336;2022-11-15T01:23:05;12.30;99.90
12289;DHT22;6207;49.308;7.336;2022-11-15T01:25:32;12.00;99.90
12289;DHT22;6207;49.308;7.336;2022-11-15T01:27:59;11.20;99.90
12289;DHT22;6207;49.308;7.336;2022-11-15T01:30:25;11.70;99.90
12289;DHT22;6207;49.308;7.336;2022-11-15T01:32:52;11.70;99.90
12289;DHT22;6207;49.308;7.336;2022-11-15T01:35:19;11.70;99.90
12289;DHT22;6207;49.308;7.336;2022-11-15T01:37:46;11.60;99.90
12289;DHT22;6207;49.308;7.336;2022-11-15T01:40:13;11.60;99.90
12289;DHT22;6207;49.308;7.336;2022-11-15T01:42:40;11.60;99.90
12289;DHT22;6207;49.308;7.336;2022-11-15T01:45:14;12.10;99.90
12289;DHT22;6207;49.308;7.336;2022-11-15T01:47:45;11.50;99.90
12289;DHT22;6207;49.308;7.336;2022-11-15T01:50:16;11.90;99.90
12289;DHT22;6207;49.308;7.336;2022-11-15T01:52:44;11.50;99.90
12289;DHT22;6207;49.308;7.336;2022-11-15T01:55:18;11.90;99.90
12289;DHT22;6207;49.308;7.336;2022-11-15T01:57:48;11.50;99.90
12289;DHT22;6207;49.308;7.336;2022-11-15T02:00:17;11.50;99.90
12289;DHT22;6207;49.308;7.336;2022-11-15T02:02:44;11.60;99.90
12289;DHT22;6207;49.308;7.336;2022-11-15T02:05:11;12.10;99.90
12289;DHT22;6207;49.308;7.336;2022-11-15T02:07:38;11.60;99.90
12289;DHT22;6207;49.308;7.336;2022-11-15T02:10:14;11.60;99.90
12289;DHT22;6207;49.308;7.336;2022-11-15T02:12:41;11.60;99.90
12289;DHT22;6207;49.308;7.336;2022-11-15T02:15:09;11.90;99.90
12289;DHT22;6207;49.308;7.336;2022-11-15T02:23:31;11.50;99.90
12289;DHT22;6207;49.308;7.336;2022-11-15T02:29:06;11.50;99.90
12289;DHT22;6207;49.308;7.336;2022-11-15T02:32:06;11.40;99.90
12289;DHT22;6207;49.308;7.336;2022-11-15T02:34:54;11.40;99.90
12289;DHT22;6207;49.308;7.336;2022-11-15T02:37:57;12.00;99.90
12289;DHT22;6207;49.308;7.336;2022-11-15T02:46:55;11.40;99.90
12289;DHT22;6207;49.308;7.336;2022-11-15T02:49:50;11.40;99.90
12289;DHT22;6207;49.308;7.336;2022-11-15T02:52:24;11.30;99.90
12289;DHT22;6207;49.308;7.336;2022-11-15T02:54:55;11.40;99.90
12289;DHT22;6207;49.308;7.336;2022-11-15T02:57:51;11.40;99.90
12289;DHT22;6207;49.308;7.336;2022-11-15T03:00:19;11.40;99.90
12289;DHT22;6207;49.308;7.336;2022-11-15T03:03:22;11.30;99.90
12289;DHT22;6207;49.308;7.336;2022-11-15T03:11:35;11.40;99.90
12289;DHT22;6207;49.308;7.336;2022-11-15T03:14:28;11.40;99.90
12289;DHT22;6207;49.308;7.336;2022-11-15T03:19:55;11.50;99.90
12289;DHT22;6207;49.308;7.336;2022-11-15T03:22:24;11.40;99.90
12289;DHT22;6207;49.308;7.336;2022-11-15T03:24:54;11.50;99.90
12289;DHT22;6207;49.308;7.336;2022-11-15T03:27:26;11.90;99.90
12289;DHT22;6207;49.308;7.336;2022-11-15T03:29:59;11.50;99.90
12289;DHT22;6207;49.308;7.336;2022-11-15T03:32:30;11.50;99.90
12289;DHT22;6207;49.308;7.336;2022-11-15T03:41:04;11.40;99.90
12289;DHT22;6207;49.308;7.336;2022-11-15T03:43:50;11.30;99.90
12289;DHT22;6207;49.308;7.336;2022-11-15T03:46:20;11.40;99.90
12289;DHT22;6207;49.308;7.336;2022-11-15T03:48:57;11.30;99.90
12289;DHT22;6207;49.308;7.336;2022-11-15T03:51:25;11.30;99.90
12289;DHT22;6207;49.308;7.336;2022-11-15T03:53:52;11.70;99.90
12289;DHT22;6207;49.308;7.336;2022-11-15T03:56:19;11.30;99.90
12289;DHT22;6207;49.308;7.336;2022-11-15T03:58:46;11.30;99.90
12289;DHT22;6207;49.308;7.336;2022-11-15T04:01:13;11.40;99.90
12289;DHT22;6207;49.308;7.336;2022-11-15T04:03:40;11.70;99.90
12289;DHT22;6207;49.308;7.336;2022-11-15T04:06:07;11.70;99.90
12289;DHT22;6207;49.308;7.336;2022-11-15T04:08:34;11.60;99.90
12289;DHT22;6207;49.308;7.336;2022-11-15T04:11:01;10.90;99.90
12289;DHT22;6207;49.308;7.336;2022-11-15T04:13:28;11.10;99.90
12289;DHT22;6207;49.308;7.336;2022-11-15T04:15:55;11.30;99.90
12289;DHT22;6207;49.308;7.336;2022-11-15T04:18:22;11.90;99.90
12289;DHT22;6207;49.308;7.336;2022-11-15T04:20:49;11.30;99.90
12289;DHT22;6207;49.308;7.336;2022-11-15T04:23:34;11.10;99.90
12289;DHT22;6207;49.308;7.336;2022-11-15T04:26:21;11.50;99.90
12289;DHT22;6207;49.308;7.336;2022-11-15T04:28:48;11.50;99.90
12289;DHT22;6207;49.308;7.336;2022-11-15T04:31:34;11.40;99.90
12289;DHT22;6207;49.308;7.336;2022-11-15T04:34:00;11.20;99.90
12289;DHT22;6207;49.308;7.336;2022-11-15T04:36:27;11.60;99.90
12289;DHT22;6207;49.308;7.336;2022-11-15T04:39:12;10.70;99.90
12289;DHT22;6207;49.308;7.336;2022-11-15T04:41:39;11.00;99.90
12289;DHT22;6207;49.308;7.336;2022-11-15T04:44:06;11.10;99.90
12289;DHT22;6207;49.308;7.336;2022-11-15T04:46:33;11.50;99.90
12289;DHT22;6207;49.308;7.336;2022-11-15T04:49:00;11.10;99.90
12289;DHT22;6207;49.308;7.336;2022-11-15T04:51:26;11.40;99.90
12289;DHT22;6207;49.308;7.336;2022-11-15T04:53:53;11.40;99.90
12289;DHT22;6207;49.308;7.336;2022-11-15T04:56:20;10.90;99.90
12289;DHT22;6207;49.308;7.336;2022-11-15T04:58:50;11.50;99.90
12289;DHT22;6207;49.308;7.336;2022-11-15T05:01:17;11.50;99.90
12289;DHT22;6207;49.308;7.336;2022-11-15T05:03:44;11.40;99.90
12289;DHT22;6207;49.308;7.336;2022-11-15T05:06:30;10.90;99.90
12289;DHT22;6207;49.308;7.336;2022-11-15T05:08:57;11.10;99.90
12289;DHT22;6207;49.308;7.336;2022-11-15T05:11:24;11.10;99.90
12289;DHT22;6207;49.308;7.336;2022-11-15T05:13:51;10.80;99.90
12289;DHT22;6207;49.308;7.336;2022-11-15T05:16:18;11.30;99.90
12289;DHT22;6207;49.308;7.336;2022-11-15T05:18:45;10.70;99.90
12289;DHT22;6207;49.308;7.336;2022-11-15T05:21:14;10.70;99.90
12289;DHT22;6207;49.308;7.336;2022-11-15T05:23:41;10.70;99.90
12289;DHT22;6207;49.308;7.336;2022-11-15T05:26:09;10.80;99.90
12289;DHT22;6207;49.308;7.336;2022-11-15T05:28:36;10.70;99.90
12289;DHT22;6207;49.308;7.336;2022-11-15T05:31:09;10.70;99.90
12289;DHT22;6207;49.308;7.336;2022-11-15T05:33:37;10.60;99.90
12289;DHT22;6207;49.308;7.336;2022-11-15T05:38:48;10.70;99.90
12289;DHT22;6207;49.308;7.336;2022-11-15T05:41:17;10.70;99.90
12289;DHT22;6207;49.308;7.336;2022-11-15T05:43:46;11.10;99.90
12289;DHT22;6207;49.308;7.336;2022-11-15T05:46:14;10.70;99.90
12289;DHT22;6207;49.308;7.336;2022-11-15T05:48:44;10.80;99.90
12289;DHT22;6207;49.308;7.336;2022-11-15T05:51:12;10.60;99.90
12289;DHT22;6207;49.308;7.336;2022-11-15T05:53:40;10.60;99.90
12289;DHT22;6207;49.308;7.336;2022-11-15T05:56:09;11.30;99.90
12289;DHT22;6207;49.308;7.336;2022-11-15T05:58:37;10.70;99.90
12289;DHT22;6207;49.308;7.336;2022-11-15T06:01:04;10.90;99.90
12289;DHT22;6207;49.308;7.336;2022-11-15T06:03:31;10.60;99.90
12289;DHT22;6207;49.308;7.336;2022-11-15T06:05:58;11.10;99.90
12289;DHT22;6207;49.308;7.336;2022-11-15T06:08:25;11.10;99.90
12289;DHT22;6207;49.308;7.336;2022-11-15T06:10:52;10.70;99.90
12289;DHT22;6207;49.308;7.336;2022-11-15T06:13:19;10.60;99.90
12289;DHT22;6207;49.308;7.336;2022-11-15T06:15:46;11.20;99.90
12289;DHT22;6207;49.308;7.336;2022-11-15T06:18:13;11.00;99.90
12289;DHT22;6207;49.308;7.336;2022-11-15T06:20:39;10.60;99.90
12289;DHT22;6207;49.308;7.336;2022-11-15T06:23:06;10.70;99.90
12289;DHT22;6207;49.308;7.336;2022-11-15T06:25:33;10.70;99.90
12289;DHT22;6207;49.308;7.336;2022-11-15T06:28:00;10.70;99.90
12289;DHT22;6207;49.308;7.336;2022-11-15T06:30:27;10.70;99.90
12289;DHT22;6207;49.308;7.336;2022-11-15T06:33:04;11.20;99.90
12289;DHT22;6207;49.308;7.336;2022-11-15T06:35:33;10.70;99.90
12289;DHT22;6207;49.308;7.336;2022-11-15T06:38:08;11.20;99.90
12289;DHT22;6207;49.308;7.336;2022-11-15T06:40:36;10.90;99.90
12289;DHT22;6207;49.308;7.336;2022-11-15T06:43:04;11.30;99.90
12289;DHT22;6207;49.308;7.336;2022-11-15T06:45:32;11.30;99.90
12289;DHT22;6207;49.308;7.336;2022-11-15T06:47:59;11.40;99.90
12289;DHT22;6207;49.308;7.336;2022-11-15T06:50:25;11.10;99.90
12289;DHT22;6207;49.308;7.336;2022-11-15T06:52:52;11.00;99.90
12289;DHT22;6207;49.308;7.336;2022-11-15T06:55:19;11.30;99.90
12289;DHT22;6207;49.308;7.336;2022-11-15T06:57:47;10.90;99.90
12289;DHT22;6207;49.308;7.336;2022-11-15T07:00:16;10.50;99.90
12289;DHT22;6207;49.308;7.336;2022-11-15T07:02:43;10.50;99.90
12289;DHT22;6207;49.308;7.336;2022-11-15T07:05:10;10.60;99.90
12289;DHT22;6207;49.308;7.336;2022-11-15T07:07:37;10.80;99.90
12289;DHT22;6207;49.308;7.336;2022-11-15T07:10:05;10.50;99.90
12289;DHT22;6207;49.308;7.336;2022-11-15T07:12:32;10.50;99.90
12289;DHT22;6207;49.308;7.336;2022-11-15T07:14:59;10.50;99.90
12289;DHT22;6207;49.308;7.336;2022-11-15T07:17:26;10.70;99.90
12289;DHT22;6207;49.308;7.336;2022-11-15T07:19:53;10.00;99.90
12289;DHT22;6207;49.308;7.336;2022-11-15T07:22:19;10.80;99.90
12289;DHT22;6207;49.308;7.336;2022-11-15T07:24:46;11.10;99.90
12289;DHT22;6207;49.308;7.336;2022-11-15T07:27:13;10.50;99.90
12289;DHT22;6207;49.308;7.336;2022-11-15T07:29:41;10.50;99.90
12289;DHT22;6207;49.308;7.336;2022-11-15T07:32:08;10.70;99.90
12289;DHT22;6207;49.308;7.336;2022-11-15T07:34:35;10.40;99.90
12289;DHT22;6207;49.308;7.336;2022-11-15T07:37:02;11.20;99.90
12289;DHT22;6207;49.308;7.336;2022-11-15T07:39:29;11.00;99.90
12289;DHT22;6207;49.308;7.336;2022-11-15T07:41:56;10.50;99.90
12289;DHT22;6207;49.308;7.336;2022-11-15T07:44:42;10.50;99.90
12289;DHT22;6207;49.308;7.336;2022-11-15T07:47:09;10.50;99.90
12289;DHT22;6207;49.308;7.336;2022-11-15T07:49:36;10.50;99.90
12289;DHT22;6207;49.308;7.336;2022-11-15T07:52:03;10.50;99.90
12289;DHT22;6207;49.308;7.336;2022-11-15T07:54:29;10.60;99.90
12289;DHT22;6207;49.308;7.336;2022-11-15T07:56:56;10.60;99.90
12289;DHT22;6207;49.308;7.336;2022-11-15T07:59:31;10.60;99.90
12289;DHT22;6207;49.308;7.336;2022-11-15T08:01:57;10.60;99.90
12289;DHT22;6207;49.308;7.336;2022-11-15T08:04:24;10.70;99.90
12289;DHT22;6207;49.308;7.336;2022-11-15T08:06:51;10.70;99.90
12289;DHT22;6207;49.308;7.336;2022-11-15T08:09:18;10.70;99.90
12289;DHT22;6207;49.308;7.336;2022-11-15T08:11:45;10.70;99.90
12289;DHT22;6207;49.308;7.336;2022-11-15T08:14:12;10.90;99.90
12289;DHT22;6207;49.308;7.336;2022-11-15T08:16:39;10.70;99.90
12289;DHT22;6207;49.308;7.336;2022-11-15T08:19:05;10.80;99.90
12289;DHT22;6207;49.308;7.336;2022-11-15T08:21:32;10.60;99.90
12289;DHT22;6207;49.308;7.336;2022-11-15T08:23:59;10.60;99.90
12289;DHT22;6207;49.308;7.336;2022-11-15T08:26:26;10.60;99.90
12289;DHT22;6207;49.308;7.336;2022-11-15T08:28:55;10.60;99.90
12289;DHT22;6207;49.308;7.336;2022-11-15T08:31:22;10.60;99.90
12289;DHT22;6207;49.308;7.336;2022-11-15T08:33:49;10.60;99.90
12289;DHT22;6207;49.308;7.336;2022-11-15T08:36:16;10.60;99.90
12289;DHT22;6207;49.308;7.336;2022-11-15T08:38:43;10.60;99.90
12289;DHT22;6207;49.308;7.336;2022-11-15T08:41:26;10.60;99.90
12289;DHT22;6207;49.308;7.336;2022-11-15T08:43:54;10.60;99.90
12289;DHT22;6207;49.308;7.336;2022-11-15T08:46:21;10.70;99.90
12289;DHT22;6207;49.308;7.336;2022-11-15T08:48:48;10.80;99.90
12289;DHT22;6207;49.308;7.336;2022-11-15T08:51:15;10.80;99.90
12289;DHT22;6207;49.308;7.336;2022-11-15T08:53:42;10.80;99.90
12289;DHT22;6207;49.308;7.336;2022-11-15T08:56:10;10.90;99.90
12289;DHT22;6207;49.308;7.336;2022-11-15T08:58:37;11.00;99.90
12289;DHT22;6207;49.308;7.336;2022-11-15T09:01:05;11.60;99.90
12289;DHT22;6207;49.308;7.336;2022-11-15T09:03:31;11.70;99.90
12289;DHT22;6207;49.308;7.336;2022-11-15T09:06:00;11.70;99.90
12289;DHT22;6207;49.308;7.336;2022-11-15T09:08:29;11.20;99.90
12289;DHT22;6207;49.308;7.336;2022-11-15T09:11:14;11.60;99.90
12289;DHT22;6207;49.308;7.336;2022-11-15T09:13:43;11.80;99.90
12289;DHT22;6207;49.308;7.336;2022-11-15T09:16:09;11.20;99.90
12289;DHT22;6207;49.308;7.336;2022-11-15T09:18:38;11.70;99.90
12289;DHT22;6207;49.308;7.336;2022-11-15T09:21:05;11.30;99.90
12289;DHT22;6207;49.308;7.336;2022-11-15T09:23:32;11.90;99.90
12289;DHT22;6207;49.308;7.336;2022-11-15T09:26:00;11.40;99.90
12289;DHT22;6207;49.308;7.336;2022-11-15T09:28:28;12.00;99.90
12289;DHT22;6207;49.308;7.336;2022-11-15T09:31:00;12.10;99.90
12289;DHT22;6207;49.308;7.336;2022-11-15T09:33:28;12.20;99.90
12289;DHT22;6207;49.308;7.336;2022-11-15T09:36:09;11.90;99.90
12289;DHT22;6207;49.308;7.336;2022-11-15T09:38:36;11.50;99.90
12289;DHT22;6207;49.308;7.336;2022-11-15T09:49:04;11.50;99.90
12289;DHT22;6207;49.308;7.336;2022-11-15T09:54:11;11.50;99.90
12289;DHT22;6207;49.308;7.336;2022-11-15T10:00:00;11.60;99.90
12289;DHT22;6207;49.308;7.336;2022-11-15T10:05:45;11.70;99.90
12289;DHT22;6207;49.308;7.336;2022-11-15T10:10:53;11.80;99.90
12289;DHT22;6207;49.308;7.336;2022-11-15T10:13:44;11.90;99.90
12289;DHT22;6207;49.308;7.336;2022-11-15T10:19:39;12.00;99.90
12289;DHT22;6207;49.308;7.336;2022-11-15T10:24:50;12.10;99.90
12289;DHT22;6207;49.308;7.336;2022-11-15T10:27:19;12.30;99.90
12289;DHT22;6207;49.308;7.336;2022-11-15T10:29:49;12.20;99.90
12289;DHT22;6207;49.308;7.336;2022-11-15T10:32:20;12.30;99.90
12289;DHT22;6207;49.308;7.336;2022-11-15T10:34:49;12.30;99.90
12289;DHT22;6207;49.308;7.336;2022-11-15T10:37:30;12.50;99.90
12289;DHT22;6207;49.308;7.336;2022-11-15T10:45:36;13.10;99.90
12289;DHT22;6207;49.308;7.336;2022-11-15T10:53:23;13.70;99.90
12289;DHT22;6207;49.308;7.336;2022-11-15T10:55:55;13.90;99.90
12289;DHT22;6207;49.308;7.336;2022-11-15T10:58:53;13.80;99.90
12289;DHT22;6207;49.308;7.336;2022-11-15T11:01:25;13.30;99.90
12289;DHT22;6207;49.308;7.336;2022-11-15T11:04:03;13.30;99.90
12289;DHT22;6207;49.308;7.336;2022-11-15T11:06:32;13.30;99.90
12289;DHT22;6207;49.308;7.336;2022-11-15T11:09:37;13.30;99.90
12289;DHT22;6207;49.308;7.336;2022-11-15T11:12:10;13.30;99.90
12289;DHT22;6207;49.308;7.336;2022-11-15T11:14:38;13.50;99.90
12289;DHT22;6207;49.308;7.336;2022-11-15T11:22:56;13.40;99.90
12289;DHT22;6207;49.308;7.336;2022-11-15T11:33:26;13.60;99.90
12289;DHT22;6207;49.308;7.336;2022-11-15T11:36:17;13.70;99.90
12289;DHT22;6207;49.308;7.336;2022-11-15T11:47:50;13.70;99.90
12289;DHT22;6207;49.308;7.336;2022-11-15T11:50:18;13.60;99.90
12289;DHT22;6207;49.308;7.336;2022-11-15T11:53:11;13.60;99.90
12289;DHT22;6207;49.308;7.336;2022-11-15T11:58:19;13.70;99.90
12289;DHT22;6207;49.308;7.336;2022-11-15T12:01:17;13.90;99.90
12289;DHT22;6207;49.308;7.336;2022-11-15T12:03:50;14.00;99.90
12289;DHT22;6207;49.308;7.336;2022-11-15T12:06:35;13.90;99.90
12289;DHT22;6207;49.308;7.336;2022-11-15T12:09:30;13.80;99.90
12289;DHT22;6207;49.308;7.336;2022-11-15T12:17:37;13.90;99.90
12289;DHT22;6207;49.308;7.336;2022-11-15T12:20:17;13.90;97.00
12289;DHT22;6207;49.308;7.336;2022-11-15T12:28:08;14.00;80.20
12289;DHT22;6207;49.308;7.336;2022-11-15T12:33:34;13.90;55.10
12289;DHT22;6207;49.308;7.336;2022-11-15T12:36:05;14.00;54.50
12289;DHT22;6207;49.308;7.336;2022-11-15T12:39:12;14.00;39.00
12289;DHT22;6207;49.308;7.336;2022-11-15T13:03:23;14.30;9.30
12289;DHT22;6207;49.308;7.336;2022-11-15T13:05:55;13.80;1.00
12289;DHT22;6207;49.308;7.336;2022-11-15T13:08:40;13.80;1.00
12289;DHT22;6207;49.308;7.336;2022-11-15T13:11:42;13.80;5.80
12289;DHT22;6207;49.308;7.336;2022-11-15T13:14:38;13.70;1.00
12289;DHT22;6207;49.308;7.336;2022-11-15T13:23:07;13.60;1.00
12289;DHT22;6207;49.308;7.336;2022-11-15T13:33:17;13.60;1.00
12289;DHT22;6207;49.308;7.336;2022-11-15T13:35:49;13.40;1.00
12289;DHT22;6207;49.308;7.336;2022-11-15T13:38:28;13.50;1.00
12289;DHT22;6207;49.308;7.336;2022-11-15T13:40:57;13.50;1.00
12289;DHT22;6207;49.308;7.336;2022-11-15T13:43:32;13.50;1.00
12289;DHT22;6207;49.308;7.336;2022-11-15T13:48:32;13.50;1.00
12289;DHT22;6207;49.308;7.336;2022-11-15T13:51:06;14.10;1.00
12289;DHT22;6207;49.308;7.336;2022-11-15T13:53:37;13.50;1.00
12289;DHT22;6207;49.308;7.336;2022-11-15T13:56:08;13.40;1.00
12289;DHT22;6207;49.308;7.336;2022-11-15T13:58:37;13.40;1.00
12289;DHT22;6207;49.308;7.336;2022-11-15T14:01:06;13.50;1.00
12289;DHT22;6207;49.308;7.336;2022-11-15T14:03:39;14.30;1.00
12289;DHT22;6207;49.308;7.336;2022-11-15T14:06:13;13.70;1.00
12289;DHT22;6207;49.308;7.336;2022-11-15T14:11:30;13.40;1.00
12289;DHT22;6207;49.308;7.336;2022-11-15T14:14:18;13.40;1.00
12289;DHT22;6207;49.308;7.336;2022-11-15T14:16:48;13.30;1.00
12289;DHT22;6207;49.308;7.336;2022-11-15T14:22:12;14.00;1.00
12289;DHT22;6207;49.308;7.336;2022-11-15T14:24:43;13.50;1.00
12289;DHT22;6207;49.308;7.336;2022-11-15T14:27:25;13.40;1.00
12289;DHT22;6207;49.308;7.336;2022-11-15T14:29:52;13.50;1.00
12289;DHT22;6207;49.308;7.336;2022-11-15T14:32:20;13.80;1.00
12289;DHT22;6207;49.308;7.336;2022-11-15T14:34:53;13.20;1.00
12289;DHT22;6207;49.308;7.336;2022-11-15T14:37:47;13.20;1.00
12289;DHT22;6207;49.308;7.336;2022-11-15T14:40:20;13.20;1.00
12289;DHT22;6207;49.308;7.336;2022-11-15T14:42:49;12.60;1.00
12289;DHT22;6207;49.308;7.336;2022-11-15T14:45:19;13.20;1.00
12289;DHT22;6207;49.308;7.336;2022-11-15T14:48:00;12.50;1.00
12289;DHT22;6207;49.308;7.336;2022-11-15T14:50:27;13.20;1.00
12289;DHT22;6207;49.308;7.336;2022-11-15T14:52:54;13.90;1.00
12289;DHT22;6207;49.308;7.336;2022-11-15T14:55:35;13.20;1.00
12289;DHT22;6207;49.308;7.336;2022-11-15T14:58:03;13.20;1.00
12289;DHT22;6207;49.308;7.336;2022-11-15T15:00:31;13.30;1.00
12289;DHT22;6207;49.308;7.336;2022-11-15T15:03:58;13.20;1.00
12289;DHT22;6207;49.308;7.336;2022-11-15T15:06:26;13.50;1.00
12289;DHT22;6207;49.308;7.336;2022-11-15T15:08:53;13.10;1.00
12289;DHT22;6207;49.308;7.336;2022-11-15T15:13:46;13.10;1.00
12289;DHT22;6207;49.308;7.336;2022-11-15T15:16:13;13.10;1.00
12289;DHT22;6207;49.308;7.336;2022-11-15T15:18:40;13.20;1.00
12289;DHT22;6207;49.308;7.336;2022-11-15T15:21:20;13.10;1.00
12289;DHT22;6207;49.308;7.336;2022-11-15T15:23:47;13.00;1.00
12289;DHT22;6207;49.308;7.336;2022-11-15T15:26:14;13.50;1.00
12289;DHT22;6207;49.308;7.336;2022-11-15T15:28:41;12.90;1.00
12289;DHT22;6207;49.308;7.336;2022-11-15T15:31:09;12.90;1.00
12289;DHT22;6207;49.308;7.336;2022-11-15T15:33:37;13.30;1.00
12289;DHT22;6207;49.308;7.336;2022-11-15T15:36:04;13.50;1.00
12289;DHT22;6207;49.308;7.336;2022-11-15T15:38:31;12.90;1.00
12289;DHT22;6207;49.308;7.336;2022-11-15T15:40:59;12.40;1.00
12289;DHT22;6207;49.308;7.336;2022-11-15T15:43:28;12.40;1.00
12289;DHT22;6207;49.308;7.336;2022-11-15T15:45:55;12.80;1.00
12289;DHT22;6207;49.308;7.336;2022-11-15T15:48:25;12.50;1.00
12289;DHT22;6207;49.308;7.336;2022-11-15T15:50:52;12.80;1.00
12289;DHT22;6207;49.308;7.336;2022-11-15T15:53:18;12.80;1.00
12289;DHT22;6207;49.308;7.336;2022-11-15T15:55:45;12.80;1.00
12289;DHT22;6207;49.308;7.336;2022-11-15T15:58:19;13.00;1.00
12289;DHT22;6207;49.308;7.336;2022-11-15T16:01:00;12.60;1.00
12289;DHT22;6207;49.308;7.336;2022-11-15T16:03:27;12.80;1.00
12289;DHT22;6207;49.308;7.336;2022-11-15T16:05:54;12.90;1.00
12289;DHT22;6207;49.308;7.336;2022-11-15T16:08:23;12.70;1.00
12289;DHT22;6207;49.308;7.336;2022-11-15T16:10:50;12.80;1.00
12289;DHT22;6207;49.308;7.336;2022-11-15T16:13:17;12.70;1.00
12289;DHT22;6207;49.308;7.336;2022-11-15T16:15:45;12.90;1.00
12289;DHT22;6207;49.308;7.336;2022-11-15T16:18:17;12.70;1.00
12289;DHT22;6207;49.308;7.336;2022-11-15T16:20:47;12.70;1.00
12289;DHT22;6207;49.308;7.336;2022-11-15T16:23:18;12.50;1.00
12289;DHT22;6207;49.308;7.336;2022-11-15T16:28:19;12.60;1.00
12289;DHT22;6207;49.308;7.336;2022-11-15T16:30:46;12.90;1.00
12289;DHT22;6207;49.308;7.336;2022-11-15T16:33:22;13.20;1.00
12289;DHT22;6207;49.308;7.336;2022-11-15T16:35:51;12.60;1.00
12289;DHT22;6207;49.308;7.336;2022-11-15T16:38:19;12.60;1.00
12289;DHT22;6207;49.308;7.336;2022-11-15T16:40:46;13.00;1.00
12289;DHT22;6207;49.308;7.336;2022-11-15T16:43:13;12.40;1.00
12289;DHT22;6207;49.308;7.336;2022-11-15T16:45:40;12.70;1.00
12289;DHT22;6207;49.308;7.336;2022-11-15T16:48:21;12.30;1.00
12289;DHT22;6207;49.308;7.336;2022-11-15T16:50:49;12.20;1.00
12289;DHT22;6207;49.308;7.336;2022-11-15T16:53:17;12.20;1.00
12289;DHT22;6207;49.308;7.336;2022-11-15T16:55:44;12.70;1.00
12289;DHT22;6207;49.308;7.336;2022-11-15T16:58:11;11.90;1.00
12289;DHT22;6207;49.308;7.336;2022-11-15T17:00:40;12.30;1.00
12289;DHT22;6207;49.308;7.336;2022-11-15T17:03:07;12.30;1.00
12289;DHT22;6207;49.308;7.336;2022-11-15T17:05:34;12.30;1.00
12289;DHT22;6207;49.308;7.336;2022-11-15T17:08:01;12.30;1.00
12289;DHT22;6207;49.308;7.336;2022-11-15T17:10:28;12.80;1.00
12289;DHT22;6207;49.308;7.336;2022-11-15T17:12:55;12.30;1.00
12289;DHT22;6207;49.308;7.336;2022-11-15T17:15:23;12.70;1.00
12289;DHT22;6207;49.308;7.336;2022-11-15T17:17:54;12.30;1.00
12289;DHT22;6207;49.308;7.336;2022-11-15T17:20:23;12.40;1.00
12289;DHT22;6207;49.308;7.336;2022-11-15T17:22:50;12.20;1.00
12289;DHT22;6207;49.308;7.336;2022-11-15T17:25:19;12.20;1.00
12289;DHT22;6207;49.308;7.336;2022-11-15T17:27:46;12.20;1.00
12289;DHT22;6207;49.308;7.336;2022-11-15T17:30:13;12.70;1.00
12289;DHT22;6207;49.308;7.336;2022-11-15T17:32:45;12.30;1.00
12289;DHT22;6207;49.308;7.336;2022-11-15T17:35:15;12.70;1.00
12289;DHT22;6207;49.308;7.336;2022-11-15T17:37:42;12.20;1.00
12289;DHT22;6207;49.308;7.336;2022-11-15T17:40:10;12.10;1.00
12289;DHT22;6207;49.308;7.336;2022-11-15T17:42:39;12.20;1.00
12289;DHT22;6207;49.308;7.336;2022-11-15T17:45:09;12.70;1.00
12289;DHT22;6207;49.308;7.336;2022-11-15T17:47:36;12.20;1.00
12289;DHT22;6207;49.308;7.336;2022-11-15T17:50:04;12.50;1.00
12289;DHT22;6207;49.308;7.336;2022-11-15T17:52:33;12.10;1.00
12289;DHT22;6207;49.308;7.336;2022-11-15T17:55:09;12.50;23.40
12289;DHT22;6207;49.308;7.336;2022-11-15T17:57:39;12.40;72.50
12289;DHT22;6207;49.308;7.336;2022-11-15T18:00:17;11.90;95.90
12289;DHT22;6207;49.308;7.336;2022-11-15T18:02:46;11.90;99.90
12289;DHT22;6207;49.308;7.336;2022-11-15T18:05:13;12.40;99.90
12289;DHT22;6207;49.308;7.336;2022-11-15T18:07:40;12.30;99.90
12289;DHT22;6207;49.308;7.336;2022-11-15T18:10:07;12.00;99.90
12289;DHT22;6207;49.308;7.336;2022-11-15T18:12:34;11.70;99.90
12289;DHT22;6207;49.308;7.336;2022-11-15T18:15:01;12.20;99.90
12289;DHT22;6207;49.308;7.336;2022-11-15T18:17:28;11.60;99.90
12289;DHT22;6207;49.308;7.336;2022-11-15T18:19:55;12.40;99.90
12289;DHT22;6207;49.308;7.336;2022-11-15T18:22:22;11.70;99.90
12289;DHT22;6207;49.308;7.336;2022-11-15T18:24:52;12.20;99.90
12289;DHT22;6207;49.308;7.336;2022-11-15T18:27:22;12.40;99.90
12289;DHT22;6207;49.308;7.336;2022-11-15T18:30:04;12.10;99.90
12289;DHT22;6207;49.308;7.336;2022-11-15T18:32:31;11.50;99.90
12289;DHT22;6207;49.308;7.336;2022-11-15T18:34:58;11.90;99.90
12289;DHT22;6207;49.308;7.336;2022-11-15T18:37:25;12.20;99.90
12289;DHT22;6207;49.308;7.336;2022-11-15T18:39:53;11.50;99.90
12289;DHT22;6207;49.308;7.336;2022-11-15T18:42:23;12.10;99.90
12289;DHT22;6207;49.308;7.336;2022-11-15T18:44:50;11.70;99.90
12289;DHT22;6207;49.308;7.336;2022-11-15T18:47:17;11.60;99.90
12289;DHT22;6207;49.308;7.336;2022-11-15T18:49:44;12.10;99.90